SCGE

María Dolores Airport

Airport
ICAO code
SCGE
IATA Code
LSQ
Summary
ICAO Region
CARSAM
ICAO Territory
Location

Los Angeles, Bio-Bio

Serving
Los Angeles
Elevation
374 ft
Coordinates
37° 24' 6" S , 72° 25' 32" W
KCC
Metar
Observation
SCGE 041500Z 36010KT 0400 FU VV002 24/13 Q1012
Station
MARIA DOLORES
Date/Time
2023-02-04 15:00:00
Wind direction
360°
Wind speed
10 kts
Lowest cloud amount
n/a
Temperature
24°C
Dew point
13°C
Humidity
50%
QNH
1012 hPa
Weather condition
n/a

Airport to the northwest of Los Angeles, Bio Bio, Chile.

Climatology

Mediterranean climate (Köppen climate classification Csb)

Runways

Designator Length Width Surface Rops
18/36 1700 30 ASP No/No

Airport map

Aerial View

SKYbrary Partners:

Safety knowledge contributed by: